Narkvik, Narvik Framnes Airport (ENNK)

NameNarvik Framnes Airport
CityNarkvik
CountryNorway
ICAOENNK
IATANVK
Altitude29 m
CoordinatesGoogle Map
Live Air TrafficLiveATC.net
METARENNK 311550Z 04006KT 9999 FEW060 BKN200 01/M08 Q1011
2017-03-31 15:50:00 Wind: North-Northeast (40°) 3.09 m/s - Visibility: > 10000 m - Temperature: 1 °C - Dew point: -8 °C - Humidity: 51.4% - Pressure: 1011 hPa

Sorry, no flights used the airport in this database.